Decoded Metar for LDZA (ZAGREB in CROATIA) (IATA:ZAG) | Meteo·Mobile Aviation Weather
aviador You're here:

LDZA Decoded Metar

ZAGREB in CROATIA
Report Time2018-10-17 21:00:00
UTC Time2018-10-17 21:31:34
Flight Rules vfr VFR
Wind250° at 03 kt
W.Decomp.*RWY 23: 2.9 kt HW 0.9 kt RCW
W.Rank250° ranks 4
Current wind is below 250° avg. (4.8)
Visibility8000 m
Phenomena:Shallow Fog
Clouds:N/A
Expected CloudBase > 800 ft AGL from Temp-Dew spread
CeilingNone
Temp12°C (ISA -2)
Dew Point10°C (88% RH)
AAT11.0°C
QNH1019 hPa
Density Alt39 ft
Elevation351 ft
Report Wrong Elevation
Raw Report
LDZA 172100Z 25003KT 8000 MIFG NSC 12/10 Q1019 NOSIG=

Extra information for LDZA:More info

Metar Taf Metar & Taf Last 4 Metars F.Rules Stats Wind Profile Meteogram Temp Stats Airport Information Weather charts Add Link Nearby VenuesMetar ALERT Operation Metar Decoded Social comments